Time;durP1;ratioP1;P1;durP2;ratioP2;P2;SDS_P1;SDS_P2;PMS_P1;PMS_P2;Temp;Humidity;BMP_temperature;BMP_pressure;BME280_temperature;BME280_humidity;BME280_pressure;Samples;Min_cycle;Max_cycle;Signal;HPM_P1;HPM_P2
2021/03/14 00:00:17;;;;;;;8.27;5.95;;;;;;;22.69;41.57;94708.84;5028016;28;20512;-75
2021/03/14 00:02:42;;;;;;;8.55;5.47;;;;;;;22.67;41.93;94711.34;5029172;28;20029;-76
2021/03/14 00:05:08;;;;;;;7.03;5.55;;;;;;;22.67;41.92;94712.06;5028321;28;20442;-75
2021/03/14 00:07:34;;;;;;;7.47;5.32;;;;;;;22.50;41.64;94672.69;5028859;28;20122;-75
2021/03/14 00:09:59;;;;;;;7.20;5.13;;;;;;;22.55;41.95;94682.78;5028170;28;20496;-75
2021/03/14 00:12:25;;;;;;;5.97;5.18;;;;;;;22.56;41.75;94687.72;5027891;28;20025;-76
2021/03/14 00:14:50;;;;;;;7.90;5.63;;;;;;;22.61;41.64;94697.78;5028897;28;20075;-75
2021/03/14 00:17:15;;;;;;;8.35;5.80;;;;;;;22.61;41.72;94686.19;5030059;28;20018;-76
2021/03/14 00:19:41;;;;;;;8.77;5.57;;;;;;;22.61;41.71;94691.63;5030151;28;20013;-75
2021/03/14 00:22:06;;;;;;;7.15;5.68;;;;;;;22.59;41.76;94683.25;5030211;28;20450;-75
2021/03/14 00:24:32;;;;;;;8.23;5.90;;;;;;;22.46;41.54;94664.06;5029725;28;20029;-75
2021/03/14 00:26:57;;;;;;;7.60;5.47;;;;;;;22.54;41.80;94673.13;5043977;28;20033;-75
2021/03/14 00:29:23;;;;;;;7.40;5.65;;;;;;;22.53;41.83;94674.41;5028756;28;20032;-76
2021/03/14 00:31:49;;;;;;;8.02;6.22;;;;;;;22.53;42.02;94680.56;5028180;28;20403;-75
2021/03/14 00:34:14;;;;;;;7.57;5.57;;;;;;;22.51;41.92;94676.88;5028649;28;20087;-75
2021/03/14 00:36:40;;;;;;;7.80;5.50;;;;;;;22.46;41.95;94664.81;5028940;28;20033;-75
2021/03/14 00:39:05;;;;;;;8.30;6.00;;;;;;;22.46;41.88;94661.34;5028429;28;20049;-75
2021/03/14 00:41:31;;;;;;;7.30;5.53;;;;;;;22.42;41.78;94655.47;5028230;28;20044;-75
2021/03/14 00:43:56;;;;;;;9.65;6.22;;;;;;;22.44;41.87;94661.13;5029161;28;20029;-75
2021/03/14 00:46:22;;;;;;;8.20;5.70;;;;;;;22.43;41.87;94659.66;5029378;28;20476;-75
2021/03/14 00:48:47;;;;;;;8.38;5.55;;;;;;;22.40;41.68;94655.22;5028006;28;20482;-76
2021/03/14 00:51:12;;;;;;;8.82;6.18;;;;;;;22.40;41.75;94655.22;5029321;28;20036;-75
2021/03/14 00:53:38;;;;;;;8.13;6.65;;;;;;;22.38;42.20;94657.75;5029497;28;20033;-75
2021/03/14 00:56:04;;;;;;;7.97;5.53;;;;;;;22.35;42.00;94647.16;5029394;28;20028;-75
2021/03/14 00:58:29;;;;;;;7.53;6.05;;;;;;;22.37;42.08;94650.81;5029334;28;20017;-76
2021/03/14 01:00:54;;;;;;;8.40;6.43;;;;;;;22.36;41.74;94654.81;5044037;28;20059;-75
2021/03/14 01:03:20;;;;;;;8.00;5.80;;;;;;;22.35;41.87;94658.75;5029411;28;20025;-75
2021/03/14 01:05:45;;;;;;;7.57;5.90;;;;;;;22.34;42.05;94651.09;5029199;28;20017;-75
2021/03/14 01:08:11;;;;;;;8.82;6.05;;;;;;;22.32;41.66;94657.06;5028131;28;20036;-75
2021/03/14 01:10:36;;;;;;;9.38;6.10;;;;;;;22.29;41.87;94649.91;5028699;28;20030;-75
2021/03/14 01:13:02;;;;;;;8.48;6.13;;;;;;;22.27;41.79;94646.97;5029017;28;20082;-75
2021/03/14 01:15:28;;;;;;;9.02;5.97;;;;;;;22.25;41.81;94637.84;5029372;28;20044;-75
2021/03/14 01:17:53;;;;;;;8.70;5.95;;;;;;;22.29;41.81;94644.47;5030084;28;20529;-75
2021/03/14 01:20:20;;;;;;;10.82;6.38;;;;;;;22.29;41.77;94649.91;5029144;28;20033;-75
2021/03/14 01:22:45;;;;;;;9.90;6.07;;;;;;;22.28;41.89;94658.59;5029286;28;20025;-75
2021/03/14 01:25:11;;;;;;;9.40;6.10;;;;;;;22.27;41.68;94657.09;5029752;28;20032;-75
2021/03/14 01:27:37;;;;;;;9.57;6.45;;;;;;;22.25;41.81;94654.91;5029888;28;20040;-75
2021/03/14 01:30:06;;;;;;;8.15;5.60;;;;;;;22.24;41.69;94649.97;5028894;28;20422;-75
2021/03/14 01:32:31;;;;;;;8.48;5.93;;;;;;;22.23;41.68;94646.53;5029183;28;20036;-75
2021/03/14 01:34:57;;;;;;;8.43;6.28;;;;;;;22.20;41.88;94647.50;5043912;28;20029;-75
2021/03/14 01:37:24;;;;;;;8.18;6.13;;;;;;;22.13;41.79;94648.06;5029289;28;20115;-76
2021/03/14 01:39:49;;;;;;;8.32;6.15;;;;;;;22.14;41.80;94635.94;5028854;28;20033;-75
2021/03/14 01:42:26;;;;;;;10.10;6.28;;;;;;;22.15;41.89;94640.16;5028808;28;20040;-75
2021/03/14 01:44:52;;;;;;;8.70;6.10;;;;;;;22.12;41.72;94635.72;5028657;28;20021;-75
2021/03/14 01:47:17;;;;;;;10.18;6.53;;;;;;;22.15;41.86;94634.72;5028840;28;20121;-75
2021/03/14 01:49:43;;;;;;;9.48;6.18;;;;;;;22.13;41.87;94637.19;5028931;28;20034;-75
2021/03/14 01:52:08;;;;;;;9.82;6.22;;;;;;;22.12;41.87;94630.28;5044488;28;20033;-76
2021/03/14 01:54:34;;;;;;;8.93;6.35;;;;;;;22.13;41.82;94637.19;5044104;28;20037;-75
2021/03/14 01:56:59;;;;;;;8.95;6.80;;;;;;;22.11;41.81;94639.69;5027205;28;20029;-75
2021/03/14 01:59:25;;;;;;;8.50;6.38;;;;;;;21.94;41.76;94608.47;5027530;28;20067;-75
2021/03/14 02:01:51;;;;;;;8.98;6.32;;;;;;;21.95;42.00;94616.09;5027416;28;20034;-75
2021/03/14 02:04:16;;;;;;;9.73;6.53;;;;;;;22.07;41.82;94633.78;5044114;28;20032;-75
2021/03/14 02:06:42;;;;;;;10.15;6.60;;;;;;;22.02;41.99;94631.13;5027385;28;20034;-75
2021/03/14 02:09:07;;;;;;;8.05;6.35;;;;;;;21.99;42.04;94630.16;5027451;28;20029;-75
2021/03/14 02:11:34;;;;;;;8.90;6.25;;;;;;;22.02;41.83;94631.88;5044097;28;20030;-75
2021/03/14 02:13:59;;;;;;;9.45;6.70;;;;;;;22.04;41.67;94640.25;5043783;28;20418;-75
2021/03/14 02:16:28;;;;;;;9.00;6.15;;;;;;;22.04;41.51;94640.25;5027203;28;20021;-75
2021/03/14 02:18:57;;;;;;;8.30;6.50;;;;;;;22.04;42.01;94629.38;5028776;28;20115;-75
2021/03/14 02:21:22;;;;;;;9.15;6.50;;;;;;;22.04;41.71;94626.66;5031091;28;20075;-75
2021/03/14 02:24:13;;;;;;;11.07;6.75;;;;;;;22.03;41.71;94627.91;5032383;28;20033;-75
2021/03/14 02:26:45;;;;;;;11.55;6.93;;;;;;;22.02;41.61;94628.41;5031204;28;20034;-75
2021/03/14 02:29:20;;;;;;;9.23;6.25;;;;;;;21.98;41.92;94625.97;5032748;28;20107;-75
2021/03/14 02:31:46;;;;;;;8.50;6.55;;;;;;;21.98;41.72;94625.25;5032487;28;20604;-76
2021/03/14 02:34:13;;;;;;;10.63;6.80;;;;;;;21.91;41.79;94625.78;5030519;28;20025;-75
2021/03/14 02:36:41;;;;;;;10.30;6.50;;;;;;;21.95;41.89;94621.53;5030936;28;20505;-75
2021/03/14 02:39:08;;;;;;;8.93;6.55;;;;;;;21.93;41.55;94621.31;5031004;28;20069;-75
2021/03/14 02:41:34;;;;;;;9.55;6.78;;;;;;;21.80;41.69;94614.31;5030975;28;20088;-75
2021/03/14 02:43:59;;;;;;;9.52;7.00;;;;;;;21.94;41.65;94625.53;5030813;28;20528;-75
2021/03/14 02:46:26;;;;;;;8.85;6.57;;;;;;;21.95;41.69;94621.53;5030561;28;20033;-75
2021/03/14 02:48:52;;;;;;;9.80;6.80;;;;;;;21.93;41.88;94634.91;5031712;28;20509;-75
2021/03/14 02:51:17;;;;;;;9.88;6.80;;;;;;;21.91;41.82;94630.50;5030447;28;20033;-75
2021/03/14 02:53:43;;;;;;;9.25;6.50;;;;;;;21.93;41.79;94640.34;5031672;28;20029;-75
2021/03/14 02:56:08;;;;;;;10.25;6.85;;;;;;;21.88;41.79;94628.78;5031549;28;20040;-75
2021/03/14 02:58:34;;;;;;;8.95;6.53;;;;;;;21.88;41.82;94626.81;5030434;28;20021;-75
2021/03/14 03:01:01;;;;;;;9.52;6.57;;;;;;;21.90;41.63;94623.56;5030221;28;20040;-75
2021/03/14 03:03:26;;;;;;;8.88;6.55;;;;;;;21.77;42.36;94626.19;5031402;28;20136;-75
2021/03/14 03:05:59;;;;;;;10.40;7.32;;;;;;;21.74;41.79;94616.34;5030566;28;20025;-75
2021/03/14 03:08:28;;;;;;;9.25;6.93;;;;;;;21.89;41.78;94619.41;5047235;28;20029;-75
2021/03/14 03:10:54;;;;;;;9.40;7.03;;;;;;;21.88;41.76;94629.53;5030304;28;20029;-75
2021/03/14 03:13:19;;;;;;;9.15;6.70;;;;;;;21.76;41.70;94603.69;5046704;28;20530;-74
2021/03/14 03:15:47;;;;;;;9.82;6.63;;;;;;;21.72;41.37;94594.34;5030016;28;20060;-75
2021/03/14 03:18:12;;;;;;;9.15;6.80;;;;;;;21.73;41.57;94607.41;5031217;28;20053;-75
2021/03/14 03:20:38;;;;;;;9.82;6.85;;;;;;;21.86;41.73;94615.00;5030252;28;20037;-76
2021/03/14 03:23:03;;;;;;;9.27;7.15;;;;;;;21.85;41.83;94610.78;5031332;28;20087;-75
2021/03/14 03:25:29;;;;;;;9.43;6.85;;;;;;;21.83;41.65;94613.28;5031207;28;20088;-75
2021/03/14 03:27:54;;;;;;;11.20;7.32;;;;;;;21.78;41.75;94611.34;5031077;28;20032;-75
2021/03/14 03:30:21;;;;;;;9.35;7.03;;;;;;;21.81;41.66;94615.75;5029985;28;20032;-75
2021/03/14 03:32:46;;;;;;;9.18;6.82;;;;;;;21.79;41.53;94612.81;5031260;28;20065;-75
2021/03/14 03:35:12;;;;;;;10.15;7.03;;;;;;;21.69;41.66;94587.22;5029758;28;20029;-75
2021/03/14 03:37:38;;;;;;;11.38;7.40;;;;;;;21.66;41.64;94593.69;5046133;28;20045;-75
2021/03/14 03:40:05;;;;;;;12.55;7.50;;;;;;;21.62;41.49;94574.19;5046289;28;20414;-75
2021/03/14 03:42:30;;;;;;;10.10;7.07;;;;;;;21.65;41.66;94586.75;5046356;28;20522;-75
2021/03/14 03:44:56;;;;;;;10.73;7.60;;;;;;;21.79;41.58;94610.09;5046151;28;20021;-75
2021/03/14 03:47:21;;;;;;;10.18;7.05;;;;;;;21.63;41.70;94583.84;5029511;28;20034;-75
2021/03/14 03:49:49;;;;;;;9.25;6.57;;;;;;;21.72;41.75;94597.06;5029632;28;20033;-75
2021/03/14 03:52:15;;;;;;;8.75;6.60;;;;;;;21.67;41.67;94578.84;5046213;28;20446;-75
2021/03/14 03:54:41;;;;;;;10.43;7.05;;;;;;;21.79;41.69;94599.22;5041395;28;20112;-75
2021/03/14 03:57:06;;;;;;;9.68;7.22;;;;;;;21.84;41.62;94599.19;5045220;28;20021;-75
2021/03/14 03:59:32;;;;;;;10.07;6.85;;;;;;;21.88;41.58;94604.34;5037709;28;20505;-76
2021/03/14 04:01:57;;;;;;;10.15;6.80;;;;;;;21.91;41.37;94597.88;5030654;28;20456;-75
2021/03/14 04:04:23;;;;;;;10.07;7.10;;;;;;;21.80;41.46;94573.53;5029274;28;20025;-75
2021/03/14 04:06:51;;;;;;;9.20;6.75;;;;;;;21.83;41.48;94575.22;5028074;28;20509;-76
2021/03/14 04:09:17;;;;;;;10.13;6.93;;;;;;;22.02;41.15;94604.69;5028990;28;20025;-75
2021/03/14 04:11:42;;;;;;;9.10;6.72;;;;;;;21.93;40.97;94580.53;5045224;28;20036;-76
2021/03/14 04:14:08;;;;;;;9.60;6.82;;;;;;;22.10;41.22;94588.53;5044986;28;20033;-72
2021/03/14 04:16:34;;;;;;;9.38;6.35;;;;;;;22.13;41.00;94599.13;5028933;28;20036;-75
2021/03/14 04:18:59;;;;;;;9.18;6.65;;;;;;;22.15;40.98;94585.75;5028774;28;20051;-73
2021/03/14 04:21:25;;;;;;;9.05;6.80;;;;;;;22.17;41.40;94583.25;5028353;28;20033;-75
2021/03/14 04:23:51;;;;;;;10.20;6.97;;;;;;;22.18;41.13;94579.31;5012284;28;20124;-73
2021/03/14 04:26:20;;;;;;;9.00;6.75;;;;;;;22.05;41.09;94554.72;5012067;28;20115;-71
2021/03/14 04:28:46;;;;;;;9.43;6.93;;;;;;;22.24;41.10;94581.97;5012379;28;20033;-72
2021/03/14 04:31:12;;;;;;;10.65;7.10;;;;;;;22.25;40.89;94584.19;5029588;28;20291;-72
2021/03/14 04:33:37;;;;;;;12.02;7.60;;;;;;;22.28;40.72;94577.72;5028503;28;20039;-72
2021/03/14 04:36:03;;;;;;;9.75;7.18;;;;;;;22.29;40.68;94568.31;5027715;28;20091;-72
2021/03/14 04:38:28;;;;;;;10.63;7.50;;;;;;;22.34;40.72;94572.94;5028877;28;20526;-72
2021/03/14 04:40:55;;;;;;;11.50;7.80;;;;;;;22.36;40.39;94573.19;5011534;28;20502;-73
2021/03/14 04:43:20;;;;;;;9.45;7.07;;;;;;;22.37;40.45;94569.19;5027664;28;20066;-73
2021/03/14 04:45:46;;;;;;;10.80;7.82;;;;;;;22.38;40.49;94565.25;5024083;28;20045;-77
2021/03/14 04:48:11;;;;;;;12.63;8.82;;;;;;;22.41;40.10;94569.66;5016461;28;20021;-72
2021/03/14 04:50:37;;;;;;;9.30;7.03;;;;;;;22.41;40.36;94569.66;5029269;28;20033;-71
2021/03/14 04:53:02;;;;;;;10.40;7.63;;;;;;;22.42;40.41;94563.69;5029088;28;20030;-71
2021/03/14 04:55:31;;;;;;;11.07;7.55;;;;;;;22.43;40.24;94559.00;5028090;28;20064;-71
2021/03/14 04:57:59;;;;;;;10.23;7.18;;;;;;;22.46;40.27;94555.25;5044048;28;20104;-71
2021/03/14 05:00:25;;;;;;;11.18;7.35;;;;;;;22.49;40.32;94559.66;5027571;28;20033;-71
2021/03/14 05:02:56;;;;;;;10.20;7.65;;;;;;;22.45;40.24;94562.69;5025350;28;20068;-72
2021/03/14 05:05:22;;;;;;;10.55;7.57;;;;;;;22.43;40.28;94556.28;5006551;28;20021;-71
2021/03/14 05:07:47;;;;;;;10.43;7.60;;;;;;;22.50;40.20;94561.13;5024106;28;20033;-76
2021/03/14 05:10:19;;;;;;;11.02;7.60;;;;;;;22.55;39.96;94573.94;5011247;28;20687;-73
2021/03/14 05:12:45;;;;;;;11.32;7.60;;;;;;;22.57;40.00;94574.13;5027838;28;20494;-72
2021/03/14 05:15:11;;;;;;;10.90;7.78;;;;;;;22.58;40.33;94562.00;5027985;28;20022;-72
2021/03/14 05:17:37;;;;;;;9.93;7.40;;;;;;;22.49;39.94;94548.78;5029139;28;20067;-73
2021/03/14 05:20:04;;;;;;;10.05;7.22;;;;;;;22.62;40.00;94567.91;5011227;28;20055;-72
2021/03/14 05:22:29;;;;;;;10.80;7.38;;;;;;;22.63;40.25;94563.91;5027632;28;20032;-73
2021/03/14 05:24:55;;;;;;;10.07;7.50;;;;;;;22.49;39.84;94541.34;5027641;28;20013;-72
2021/03/14 05:27:20;;;;;;;11.23;8.02;;;;;;;22.65;40.13;94561.44;5007350;28;20514;-71
2021/03/14 05:29:46;;;;;;;11.57;8.68;;;;;;;22.53;39.66;94546.50;5017585;28;20056;-72
2021/03/14 05:32:11;;;;;;;9.48;7.25;;;;;;;22.68;39.97;94565.84;5047522;28;20024;-71
2021/03/14 05:34:37;;;;;;;10.25;7.85;;;;;;;22.68;39.98;94560.41;5048463;28;20028;-74
2021/03/14 05:37:03;;;;;;;11.00;7.50;;;;;;;22.70;39.88;94557.91;5047982;28;20119;-72
2021/03/14 05:39:28;;;;;;;11.32;7.28;;;;;;;22.65;39.66;94540.38;5037834;28;20026;-73
2021/03/14 05:41:54;;;;;;;11.98;8.18;;;;;;;22.69;39.75;94561.88;5028340;28;20034;-74
2021/03/14 05:44:19;;;;;;;10.13;7.57;;;;;;;22.73;39.59;94562.31;5027136;28;20434;-73
2021/03/14 05:46:44;;;;;;;11.82;7.90;;;;;;;22.71;39.71;94559.38;5041394;28;20478;-73
2021/03/14 05:49:10;;;;;;;12.85;8.52;;;;;;;22.75;39.68;94560.56;5048812;28;20505;-74
2021/03/14 05:51:44;;;;;;;11.10;7.95;;;;;;;22.76;39.86;94558.56;5048655;28;20520;-73
2021/03/14 05:54:15;;;;;;;10.95;7.47;;;;;;;22.76;39.35;94555.84;5050589;28;20518;-73
2021/03/14 05:56:43;;;;;;;10.80;7.72;;;;;;;22.68;39.50;94546.81;5052885;28;20041;-82
2021/03/14 05:59:09;;;;;;;10.90;7.90;;;;;;;22.78;39.46;94564.22;5051476;28;20029;-71
2021/03/14 06:01:34;;;;;;;11.63;8.20;;;;;;;22.78;39.60;94558.78;5051182;28;20021;-71
2021/03/14 06:04:00;;;;;;;12.43;8.25;;;;;;;22.78;39.48;94569.66;5052043;28;20565;-71
2021/03/14 06:06:25;;;;;;;11.13;8.63;;;;;;;22.79;39.54;94554.81;5016277;28;20025;-73
2021/03/14 06:08:51;;;;;;;11.80;8.38;;;;;;;22.81;39.81;94557.75;5032132;28;20029;-75
2021/03/14 06:11:17;;;;;;;11.88;8.18;;;;;;;22.83;39.61;94549.81;5033549;28;20037;-76
2021/03/14 06:13:43;;;;;;;12.52;9.10;;;;;;;22.85;39.76;94563.63;5032471;28;20504;-72
2021/03/14 06:16:09;;;;;;;11.70;7.70;;;;;;;22.85;39.74;94566.34;5015141;28;20029;-71
2021/03/14 06:18:34;;;;;;;11.73;8.30;;;;;;;22.76;39.69;94559.28;5047190;28;20031;-75
2021/03/14 06:21:02;;;;;;;11.60;8.15;;;;;;;22.87;39.98;94572.00;5042482;28;20028;-73
2021/03/14 06:23:27;;;;;;;11.35;8.10;;;;;;;22.75;39.91;94554.34;5032649;28;20052;-83
2021/03/14 06:25:58;;;;;;;11.77;8.13;;;;;;;22.87;39.85;94566.56;5032978;28;20032;-83
2021/03/14 06:28:34;;;;;;;18.00;10.90;;;;;;;22.83;38.25;94566.16;5050243;28;20099;-83
2021/03/14 06:31:15;;;;;;;12.65;8.23;;;;;;;22.83;39.28;94561.44;5036060;28;20505;-77
2021/03/14 06:33:40;;;;;;;12.45;8.55;;;;;;;22.88;39.58;94580.41;5034507;28;20089;-78
2021/03/14 06:36:11;;;;;;;12.15;8.70;;;;;;;22.90;39.50;94560.84;5031584;28;20030;-77
2021/03/14 06:38:36;;;;;;;11.32;8.20;;;;;;;22.76;39.55;94550.38;5047426;28;20140;-74
2021/03/14 06:41:01;;;;;;;11.63;8.18;;;;;;;22.92;39.75;94574.66;5014353;28;20032;-73
2021/03/14 06:43:35;;;;;;;13.45;8.48;;;;;;;22.94;39.40;94572.19;5040989;28;20033;-74
2021/03/14 06:46:00;;;;;;;11.27;8.23;;;;;;;22.83;39.80;94541.63;5030455;28;20041;-74
2021/03/14 06:48:29;;;;;;;12.27;8.75;;;;;;;22.95;39.50;94574.38;5028673;28;20033;-71
2021/03/14 06:50:54;;;;;;;10.57;7.88;;;;;;;22.89;39.50;94560.09;5030108;28;20516;-73
2021/03/14 06:53:21;;;;;;;12.70;8.27;;;;;;;22.96;39.57;94559.53;5030412;28;20033;-72
2021/03/14 06:55:50;;;;;;;13.15;9.63;;;;;;;22.77;38.67;94547.16;5030711;28;20032;-75
2021/03/14 06:58:29;;;;;;;12.40;8.60;;;;;;;22.95;39.07;94568.94;5030914;28;20505;-74
2021/03/14 07:01:29;;;;;;;13.23;8.75;;;;;;;22.98;39.06;94561.75;5032730;28;20049;-76
2021/03/14 07:03:55;;;;;;;12.80;8.40;;;;;;;22.87;38.96;94544.78;4994011;28;20562;-87
2021/03/14 07:06:27;;;;;;;14.05;8.98;;;;;;;22.90;38.88;94556.13;5034830;28;20116;-85
2021/03/14 07:08:57;;;;;;;12.18;8.32;;;;;;;22.90;39.03;94539.78;5030759;28;20029;-84
2021/03/14 07:11:52;;;;;;;13.00;9.10;;;;;;;23.04;39.13;94565.84;5012208;28;20021;-76
2021/03/14 07:14:18;;;;;;;13.88;9.07;;;;;;;22.86;39.11;94537.88;5019967;28;20052;-82
2021/03/14 07:16:57;;;;;;;12.98;8.98;;;;;;;23.10;39.05;94568.50;5028547;28;20057;-78
2021/03/14 07:19:27;;;;;;;11.85;8.75;;;;;;;23.15;39.05;94562.22;5028570;28;20029;-79
2021/03/14 07:21:56;;;;;;;;;;;;;;;23.19;39.07;94560.66;5030515;28;20024;-80
2021/03/14 07:24:35;;;;;;;12.23;8.50;;;;;;;23.25;38.97;94553.13;5000510;28;20020;-79
2021/03/14 07:27:03;;;;;;;12.65;9.40;;;;;;;23.34;38.96;94550.03;5032495;28;20029;-80
2021/03/14 07:29:29;;;;;;;12.00;8.48;;;;;;;23.27;38.63;94526.09;5031315;28;20379;-81
2021/03/14 07:31:55;;;;;;;12.65;9.05;;;;;;;23.49;38.81;94542.09;5030771;28;20036;-85
2021/03/14 07:34:20;;;;;;;13.18;8.88;;;;;;;23.45;38.23;94517.13;5034165;28;20029;-87
2021/03/14 07:36:46;;;;;;;13.30;9.07;;;;;;;23.55;38.61;94526.38;5049739;28;20025;-85
2021/03/14 07:39:11;;;;;;;14.90;9.57;;;;;;;23.73;38.42;94536.50;5039937;28;20058;-88
2021/03/14 07:41:37;;;;;;;13.68;9.05;;;;;;;23.82;37.78;94533.38;5038312;28;20021;-89
2021/03/14 07:44:03;;;;;;;12.63;8.90;;;;;;;23.73;37.58;94503.78;5034426;28;20025;-85
2021/03/14 07:46:28;;;;;;;14.43;9.73;;;;;;;23.91;37.34;94520.03;5034348;28;20461;-77
2021/03/14 07:48:54;;;;;;;14.85;10.65;;;;;;;24.04;37.25;94534.41;5064840;28;20036;-87
2021/03/14 07:51:20;;;;;;;13.95;9.40;;;;;;;24.12;37.43;94529.78;5041709;28;20033;-89
2021/03/14 07:53:46;;;;;;;12.43;9.00;;;;;;;24.22;37.01;94528.13;5039401;28;20104;-85
2021/03/14 07:56:11;;;;;;;24.83;16.55;;;;;;;24.26;35.10;94512.19;5035031;28;20056;-84
2021/03/14 07:58:37;;;;;;;18.27;12.68;;;;;;;24.26;35.32;94523.09;5032852;28;20103;-83
2021/03/14 08:01:42;;;;;;;13.20;10.07;;;;;;;24.41;36.58;94513.13;5031681;28;20022;-87
2021/03/14 08:04:30;;;;;;;13.40;9.20;;;;;;;24.53;36.27;94519.09;4969395;28;20038;-90
2021/03/14 08:06:55;;;;;;;14.75;9.38;;;;;;;24.55;36.68;94513.81;4982530;28;20042;-83
2021/03/14 08:09:40;;;;;;;14.10;8.80;;;;;;;24.69;36.67;94504.31;5013737;28;20037;-78
2021/03/14 08:12:16;;;;;;;13.48;9.60;;;;;;;24.75;36.25;94497.47;5030445;28;20033;-87
2021/03/14 08:14:43;;;;;;;14.30;9.40;;;;;;;24.83;36.26;94501.75;5028103;28;20032;-80
2021/03/14 08:17:15;;;;;;;12.65;9.20;;;;;;;24.89;35.89;94496.91;5028769;28;20026;-83
2021/03/14 08:19:41;;;;;;;14.25;9.60;;;;;;;24.96;35.75;94490.78;5030403;28;20061;-78
2021/03/14 08:22:07;;;;;;;13.40;9.13;;;;;;;25.00;35.81;94496.66;5037562;28;20036;-81
2021/03/14 08:24:33;;;;;;;14.80;9.85;;;;;;;24.94;35.40;94471.44;5032264;28;20037;-79
2021/03/14 08:27:08;;;;;;;14.05;9.07;;;;;;;25.04;35.61;94486.16;5032526;28;20036;-86
2021/03/14 08:29:41;;;;;;;12.93;8.95;;;;;;;25.18;35.37;94490.28;5033591;28;20040;-83
2021/03/14 08:32:09;;;;;;;14.90;9.77;;;;;;;25.25;35.50;94489.63;5033154;28;20033;-77
2021/03/14 08:34:44;;;;;;;11.73;8.98;;;;;;;25.20;35.01;94476.84;5031635;28;20025;-85
2021/03/14 08:37:29;;;;;;;13.02;8.57;;;;;;;25.31;35.49;94475.81;5014388;28;20036;-82
2021/03/14 08:40:03;;;;;;;13.60;9.13;;;;;;;25.42;35.33;94476.25;5029936;28;20514;-77
2021/03/14 08:42:51;;;;;;;16.55;8.55;;;;;;;25.46;35.36;94487.59;5029897;28;20033;-78
2021/03/14 08:45:23;;;;;;;13.38;8.65;;;;;;;25.45;35.23;94470.44;5025004;28;20029;-77
2021/03/14 08:47:49;;;;;;;12.38;8.32;;;;;;;25.51;35.53;94478.53;5021998;28;20025;-77
2021/03/14 08:50:15;;;;;;;12.35;8.77;;;;;;;25.54;35.53;94472.69;5013126;28;20025;-78
2021/03/14 08:52:40;;;;;;;16.45;10.80;;;;;;;25.64;34.32;94486.66;5031299;28;20512;-78
2021/03/14 08:55:06;;;;;;;11.23;8.43;;;;;;;25.68;34.99;94481.59;5030880;28;20071;-78
2021/03/14 08:57:31;;;;;;;11.75;8.68;;;;;;;25.69;35.01;94483.06;5032261;28;20017;-79
2021/03/14 08:59:58;;;;;;;14.02;9.02;;;;;;;25.72;34.76;94477.22;5031815;28;20033;-78
2021/03/14 09:02:28;;;;;;;13.88;9.35;;;;;;;25.77;34.94;94478.34;5025927;28;20113;-79
2021/03/14 09:04:54;;;;;;;12.40;8.45;;;;;;;25.81;34.91;94474.00;5032972;28;20094;-81
2021/03/14 09:07:20;;;;;;;13.52;9.07;;;;;;;25.85;34.76;94469.66;5039283;28;20040;-81
2021/03/14 09:09:45;;;;;;;14.05;9.52;;;;;;;25.81;34.47;94469.28;5039544;28;20039;-78
2021/03/14 09:12:13;;;;;;;12.05;8.90;;;;;;;25.84;34.47;94468.22;5050694;28;20025;-77
2021/03/14 09:14:39;;;;;;;13.30;9.27;;;;;;;25.74;34.54;94441.91;5041939;28;20051;-80
2021/03/14 09:17:10;;;;;;;12.07;9.35;;;;;;;26.00;34.53;94458.09;5053345;28;20053;-81
2021/03/14 09:19:49;;;;;;;12.73;8.27;;;;;;;26.07;34.39;94455.38;5030477;28;20033;-79
2021/03/14 09:22:25;;;;;;;12.73;8.80;;;;;;;26.10;34.22;94459.78;5035289;28;20048;-76
2021/03/14 09:24:51;;;;;;;12.60;8.70;;;;;;;26.07;34.10;94441.69;5025838;28;20060;-80
2021/03/14 09:27:24;;;;;;;12.57;8.60;;;;;;;26.05;34.10;94444.25;5035698;28;20112;-72
2021/03/14 09:29:58;;;;;;;12.52;8.60;;;;;;;26.21;34.13;94445.03;5026734;28;20021;-76
2021/03/14 09:32:29;;;;;;;13.85;8.75;;;;;;;26.22;34.10;94449.22;5042782;28;20460;-74
2021/03/14 09:35:09;;;;;;;13.02;9.15;;;;;;;26.10;34.06;94415.22;5025509;28;20033;-74
2021/03/14 09:37:34;;;;;;;12.73;8.75;;;;;;;26.23;34.01;94421.31;5042087;28;20053;-75
2021/03/14 09:40:09;;;;;;;13.63;9.02;;;;;;;26.31;34.00;94433.06;5045394;28;20411;-74
2021/03/14 09:42:34;;;;;;;12.52;8.40;;;;;;;26.24;33.99;94411.84;5033125;28;20045;-75
2021/03/14 09:45:06;;;;;;;13.73;8.82;;;;;;;26.22;33.71;94406.19;5027656;28;20033;-74
2021/03/14 09:47:31;;;;;;;13.95;9.48;;;;;;;26.43;33.80;94426.00;5029252;28;20025;-73
2021/03/14 09:50:05;;;;;;;12.50;8.48;;;;;;;26.44;33.59;94416.47;5028106;28;20040;-74
2021/03/14 09:52:31;;;;;;;11.95;8.77;;;;;;;26.43;33.66;94417.78;5028592;28;20033;-74
2021/03/14 09:54:57;;;;;;;12.30;8.98;;;;;;;26.37;33.98;94409.00;5029004;28;20026;-74
2021/03/14 09:57:22;;;;;;;12.13;8.15;;;;;;;26.30;33.62;94393.28;5047680;28;20079;-73
2021/03/14 09:59:48;;;;;;;11.32;8.82;;;;;;;26.50;33.65;94422.53;5034163;28;20025;-73
2021/03/14 10:02:13;;;;;;;11.75;8.48;;;;;;;26.34;33.83;94388.19;5031841;28;20025;-79
2021/03/14 10:04:49;;;;;;;11.82;8.65;;;;;;;26.41;33.62;94393.69;5029781;28;20104;-78
2021/03/14 10:07:25;;;;;;;12.18;8.32;;;;;;;26.59;33.45;94411.03;5028123;28;20156;-81
2021/03/14 10:09:51;;;;;;;11.95;8.38;;;;;;;26.47;33.56;94377.06;5029264;28;20117;-83
2021/03/14 10:12:16;;;;;;;12.00;8.25;;;;;;;26.62;33.61;94407.22;5045046;28;20025;-82
2021/03/14 10:14:42;;;;;;;10.77;8.30;;;;;;;26.59;33.33;94397.34;5032410;28;20060;-77
2021/03/14 10:17:07;;;;;;;13.70;8.38;;;;;;;26.51;33.46;94380.19;5050603;28;20501;-80
2021/03/14 10:19:33;;;;;;;11.80;8.27;;;;;;;26.54;33.57;94384.56;5012046;28;20026;-78
2021/03/14 10:21:58;;;;;;;11.38;8.43;;;;;;;26.51;33.51;94375.44;5041472;28;20048;-80
2021/03/14 10:24:25;;;;;;;10.30;7.93;;;;;;;26.58;33.17;94368.50;5056552;28;20032;-80
2021/03/14 10:27:04;;;;;;;12.15;8.18;;;;;;;26.71;33.47;94376.56;5045301;28;20029;-85
2021/03/14 10:29:29;;;;;;;10.00;7.57;;;;;;;26.76;33.40;94366.16;5053817;28;20017;-83
2021/03/14 10:31:55;;;;;;;10.40;8.07;;;;;;;26.68;32.85;94340.03;5048125;28;20063;-86
2021/03/14 10:34:21;;;;;;;12.80;8.38;;;;;;;26.74;32.89;94364.50;5050929;28;20031;-86
2021/03/14 10:36:46;;;;;;;11.38;7.70;;;;;;;26.77;33.24;94359.41;5059746;28;20089;-82
2021/03/14 10:39:12;;;;;;;10.40;7.68;;;;;;;26.85;32.69;94365.59;5055265;28;20045;-78
2021/03/14 10:41:42;;;;;;;12.30;7.78;;;;;;;26.87;33.08;94362.31;5079677;28;20036;-84
2021/03/14 10:44:08;;;;;;;10.20;7.80;;;;;;;26.72;33.44;94339.66;5071234;28;20035;-91
2021/03/14 10:46:39;;;;;;;13.15;8.93;;;;;;;26.85;33.33;94351.91;5055946;28;20063;-82
2021/03/14 10:49:14;;;;;;;12.55;8.02;;;;;;;26.89;33.06;94352.31;5051716;28;20037;-83
2021/03/14 10:51:40;;;;;;;10.02;7.32;;;;;;;26.88;33.02;94342.59;5055145;28;20030;-83
2021/03/14 10:54:08;;;;;;;11.65;8.00;;;;;;;26.86;33.39;94336.94;5055594;28;20029;-76
2021/03/14 10:56:38;;;;;;;10.50;7.82;;;;;;;26.71;33.42;94311.56;5071993;28;20091;-86
2021/03/14 10:59:04;;;;;;;10.65;7.80;;;;;;;26.82;33.13;94317.38;5044136;28;20025;-87
2021/03/14 11:01:36;;;;;;;10.60;7.68;;;;;;;26.74;33.33;94299.50;5057377;28;20176;-88
2021/03/14 11:04:05;;;;;;;10.00;7.35;;;;;;;26.83;32.99;94296.94;5027524;28;20104;-83
2021/03/14 11:06:31;;;;;;;10.90;7.87;;;;;;;26.84;33.55;94281.22;5035221;28;20025;-81
2021/03/14 11:09:03;;;;;;;12.63;7.70;;;;;;;26.80;33.22;94276.09;5033964;28;20744;-79
2021/03/14 11:11:50;;;;;;;11.80;8.40;;;;;;;27.00;33.27;94299.13;5032843;28;20033;-83
2021/03/14 11:14:44;;;;;;;11.75;8.10;;;;;;;27.02;33.34;94289.06;5033546;28;20033;-85
2021/03/14 11:17:11;;;;;;;11.63;8.20;;;;;;;26.99;32.96;94287.44;5031209;28;20025;-83
2021/03/14 11:19:38;;;;;;;12.05;7.45;;;;;;;27.07;33.26;94282.69;5038470;28;20022;-83
2021/03/14 11:22:04;;;;;;;11.50;7.70;;;;;;;27.05;33.02;94270.81;5033512;28;20036;-84
2021/03/14 11:24:30;;;;;;;12.07;7.70;;;;;;;27.04;33.41;94267.34;5034224;28;20033;-83
2021/03/14 11:26:55;;;;;;;12.32;7.38;;;;;;;26.88;32.95;94237.75;5033421;28;20757;-83
2021/03/14 11:29:20;;;;;;;10.80;7.35;;;;;;;27.02;32.72;94250.69;5030013;28;20038;-84
2021/03/14 11:31:46;;;;;;;10.85;7.80;;;;;;;27.10;33.10;94247.94;5031185;28;20028;-84